Flight Track Log - Related Links

Times and Time Zones

All times are in EDT time to prevent confusion due to time zone crossing. See the TAM3375 flight status page for this flight to view local times or setup timezone preferences in your user account.

Time Position Orientation Groundspeed Altitude Reporting Facility
EDT Latitude Longitude Course Direction KTS MPH feet Rate Location/Type
Tue 05:53:00 PM -21.3677 -42.3674 240° Southwest  Level Estimated
Tue 05:54:00 PM -21.4055 -42.4397 241° Southwest  Level Estimated
Tue 05:55:00 PM -21.4433 -42.5121 241° Southwest  Level Estimated
Tue 05:56:00 PM -21.4811 -42.5844 241° Southwest  Level Estimated
Tue 05:57:00 PM -21.5188 -42.6568 241° Southwest  Level Estimated
Tue 05:58:00 PM -21.5565 -42.7293 241° Southwest  Level Estimated
Tue 05:59:00 PM -21.5941 -42.8018 241° Southwest  Level Estimated
Tue 06:00:00 PM -21.6317 -42.8744 241° Southwest  Level Estimated
Tue 06:01:00 PM -21.6693 -42.9469 241° Southwest  Level Estimated
Tue 06:02:00 PM -21.7069 -43.0195 241° Southwest  Level Estimated
Tue 06:03:00 PM -21.7444 -43.0922 241° Southwest  Level Estimated
Tue 06:04:00 PM -21.7819 -43.1649 241° Southwest  Level Estimated
Tue 06:05:00 PM -21.8194 -43.2376 241° Southwest  Level Estimated
Tue 06:06:00 PM -21.8568 -43.3103 241° Southwest  Level Estimated
Tue 06:07:00 PM -21.8942 -43.3831 241° Southwest  Level Estimated
Tue 06:08:00 PM -21.9316 -43.4560 241° Southwest  Level Estimated
Tue 06:09:00 PM -21.9689 -43.5289 241° Southwest  Level Estimated
Tue 06:10:00 PM -22.0062 -43.6018 241° Southwest  Level Estimated
Tue 06:11:00 PM -22.0435 -43.6747 241° Southwest  Level Estimated
Tue 06:12:00 PM -22.0807 -43.7477 241° Southwest  Level Estimated
Tue 06:13:00 PM -22.1180 -43.8208 241° Southwest  Level Estimated
Tue 06:14:00 PM -22.1551 -43.8938 241° Southwest  Level Estimated
Tue 06:15:00 PM -22.1923 -43.9669 241° Southwest  Level Estimated
Tue 06:16:00 PM -22.2294 -44.0401 241° Southwest  Level Estimated
Tue 06:17:00 PM -22.2665 -44.1133 241° Southwest  Level Estimated
Tue 06:18:00 PM -22.3035 -44.1865 241° Southwest  Level Estimated
Tue 06:19:00 PM -22.3405 -44.2598 241° Southwest  Level Estimated
Tue 06:20:00 PM -22.3775 -44.3331 241° Southwest  Level Estimated
Tue 06:21:00 PM -22.4144 -44.4064 241° Southwest  Level Estimated
Tue 06:22:00 PM -22.4514 -44.4798 241° Southwest  Level Estimated
Tue 06:23:00 PM -22.4882 -44.5532 241° Southwest  Level Estimated
Tue 06:24:00 PM -22.5251 -44.6267 241° Southwest  Level Estimated
Tue 06:25:00 PM -22.5619 -44.7002 242° Southwest  Level Estimated
Tue 06:26:00 PM -22.5987 -44.7737 242° Southwest  Level Estimated
Tue 06:27:00 PM -22.6354 -44.8473 242° Southwest  Level Estimated
Tue 06:28:00 PM -22.6721 -44.9209 242° Southwest  Level Estimated
Tue 06:29:00 PM -22.7088 -44.9945 242° Southwest  Level Estimated
Tue 06:30:00 PM -22.7455 -45.0682 242° Southwest  Level Estimated
Tue 06:31:00 PM -22.7821 -45.1420 242° Southwest  Level Estimated
Tue 06:32:00 PM -22.8187 -45.2157 242° Southwest  Level Estimated
Tue 06:33:00 PM -22.8552 -45.2896 242° Southwest  Level Estimated
Tue 06:34:00 PM -22.8917 -45.3634 242° Southwest  Level Estimated
Tue 06:35:00 PM -22.9282 -45.4373 242° Southwest  Level Estimated
Tue 06:36:00 PM -22.9646 -45.5112 242° Southwest  Level Estimated
Tue 06:37:00 PM -23.0010 -45.5852 242° Southwest  Level Estimated
Tue 06:38:00 PM -23.0374 -45.6592 242° Southwest  Level Estimated
Tue 06:39:00 PM -23.0737 -45.7332 242° Southwest  Level Estimated
Tue 06:40:00 PM -23.1100 -45.8073 242° Southwest  Level Estimated
Tue 06:41:00 PM -23.1463 -45.8815 242° Southwest  Level Estimated
Tue 06:42:00 PM -23.1825 -45.9556 242° Southwest  Level Estimated
Tue 06:43:00 PM -23.2187 -46.0299 242° Southwest  Level Estimated
Tue 06:44:00 PM -23.2549 -46.1041 242° Southwest  Level Estimated
Tue 06:45:00 PM -23.2910 -46.1784 242° Southwest  Level Estimated
Tue 06:46:00 PM -23.3271 -46.2527 242° Southwest  Level Estimated
Tue 06:47:00 PM -23.3632 -46.3271 242° Southwest  Level Estimated
Tue 06:48:00 PM -23.3992 -46.4015 242° Southwest  Level Estimated
Tue 06:49:00 PM -23.4321 -46.4695 242° Southwest  Level Estimated
Tue 06:50:00 PM -23.4321 -46.4695 190° South  Level Estimated
Tue 06:51:00 PM -23.4321 -46.4695 350° North  Level Estimated
Tue 06:52:00 PM -23.4321 -46.4695 350° North  Level Estimated
Tue 06:53:00 PM -23.4321 -46.4695 350° North  Level Estimated
Tue 06:54:00 PM -23.4321 -46.4695 350° North  Level Estimated
Tue 06:55:00 PM -23.4321 -46.4695 350° North  Level Estimated
Tue 06:56:00 PM -23.4321 -46.4695 350° North  Level Estimated
Tue 06:57:00 PM -23.4321 -46.4695 350° North  Level Estimated
Tue 06:58:00 PM -23.4321 -46.4695 350° North  Level Estimated
Tue 06:59:00 PM -23.4321 -46.4695 350° North  Level Estimated
Tue 07:00:00 PM -23.4321 -46.4695 350° North  Level Estimated
Tue 07:01:00 PM -23.4321 -46.4695 350° North  Level Estimated
Tue 07:02:00 PM -23.4321 -46.4695 350° North  Level Estimated
Tue 07:03:00 PM -23.4321 -46.4695 350° North  Level Estimated
Tue 07:04:00 PM -23.4321 -46.4695 350° North  Level Estimated
Tue 07:05:00 PM -23.4321 -46.4695 350° North  Level Estimated

Login

Don't have an account? Register now (free) for customized features, flight alerts, and more!